sensor_id;sensor_type;location;lat;lon;timestamp;pressure;altitude;pressure_sealevel;temperature;humidity
47761;BME280;33524;55.434;38.520;2023-10-09T00:00:35;97551.91;;;0.68;100.00
47761;BME280;33524;55.434;38.520;2023-10-09T00:03:07;97578.47;;;0.92;100.00
47761;BME280;33524;55.434;38.520;2023-10-09T00:05:35;97575.31;;;0.77;100.00
47761;BME280;33524;55.434;38.520;2023-10-09T00:08:10;97585.87;;;0.74;100.00
47761;BME280;33524;55.434;38.520;2023-10-09T00:10:44;97587.53;;;0.75;100.00
47761;BME280;33524;55.434;38.520;2023-10-09T00:13:17;97587.28;;;0.78;100.00
47761;BME280;33524;55.434;38.520;2023-10-09T00:15:46;97598.25;;;0.71;100.00
47761;BME280;33524;55.434;38.520;2023-10-09T00:18:27;97601.56;;;0.73;100.00
47761;BME280;33524;55.434;38.520;2023-10-09T00:21:01;97604.97;;;0.62;100.00
47761;BME280;33524;55.434;38.520;2023-10-09T00:23:40;97612.22;;;0.68;100.00
47761;BME280;33524;55.434;38.520;2023-10-09T00:26:09;97626.34;;;0.53;100.00
47761;BME280;33524;55.434;38.520;2023-10-09T00:28:45;97618.13;;;0.48;100.00
47761;BME280;33524;55.434;38.520;2023-10-09T00:31:15;97624.59;;;0.76;100.00
47761;BME280;33524;55.434;38.520;2023-10-09T00:33:43;97628.94;;;0.64;100.00
47761;BME280;33524;55.434;38.520;2023-10-09T00:36:12;97637.03;;;0.59;100.00
47761;BME280;33524;55.434;38.520;2023-10-09T00:38:46;97631.75;;;0.50;100.00
47761;BME280;33524;55.434;38.520;2023-10-09T00:41:19;97640.09;;;0.53;100.00
47761;BME280;33524;55.434;38.520;2023-10-09T00:43:48;97639.50;;;0.50;100.00
47761;BME280;33524;55.434;38.520;2023-10-09T00:46:21;97644.22;;;0.56;100.00
47761;BME280;33524;55.434;38.520;2023-10-09T00:48:59;97651.63;;;0.60;100.00
47761;BME280;33524;55.434;38.520;2023-10-09T00:51:30;97657.50;;;0.63;100.00
47761;BME280;33524;55.434;38.520;2023-10-09T00:54:07;97657.28;;;0.77;100.00
47761;BME280;33524;55.434;38.520;2023-10-09T00:56:44;97659.75;;;0.67;100.00
47761;BME280;33524;55.434;38.520;2023-10-09T00:59:21;97666.44;;;0.70;100.00
47761;BME280;33524;55.434;38.520;2023-10-09T01:01:50;97665.75;;;0.79;100.00
47761;BME280;33524;55.434;38.520;2023-10-09T01:04:32;97672.34;;;0.83;100.00
47761;BME280;33524;55.434;38.520;2023-10-09T01:07:05;97686.47;;;0.79;100.00
47761;BME280;33524;55.434;38.520;2023-10-09T01:09:43;97677.53;;;0.83;100.00
47761;BME280;33524;55.434;38.520;2023-10-09T01:12:12;97668.06;;;0.59;100.00
47761;BME280;33524;55.434;38.520;2023-10-09T01:14:49;97686.31;;;0.80;100.00
47761;BME280;33524;55.434;38.520;2023-10-09T01:17:24;97691.13;;;0.63;100.00
47761;BME280;33524;55.434;38.520;2023-10-09T01:20:05;97688.78;;;0.71;100.00
47761;BME280;33524;55.434;38.520;2023-10-09T01:22:45;97693.28;;;0.91;100.00
47761;BME280;33524;55.434;38.520;2023-10-09T01:25:14;97698.69;;;0.77;100.00
47761;BME280;33524;55.434;38.520;2023-10-09T01:27:44;97707.37;;;0.76;100.00
47761;BME280;33524;55.434;38.520;2023-10-09T01:30:13;97695.50;;;0.73;100.00
47761;BME280;33524;55.434;38.520;2023-10-09T01:32:44;97710.31;;;0.60;100.00
47761;BME280;33524;55.434;38.520;2023-10-09T01:35:14;97718.19;;;0.70;100.00
47761;BME280;33524;55.434;38.520;2023-10-09T01:37:49;97716.50;;;0.57;100.00
47761;BME280;33524;55.434;38.520;2023-10-09T01:40:19;97721.94;;;0.66;100.00
47761;BME280;33524;55.434;38.520;2023-10-09T01:43:03;97728.06;;;0.76;100.00
47761;BME280;33524;55.434;38.520;2023-10-09T01:45:32;97731.09;;;0.58;100.00
47761;BME280;33524;55.434;38.520;2023-10-09T01:48:10;97722.63;;;0.56;100.00
47761;BME280;33524;55.434;38.520;2023-10-09T01:50:40;97736.19;;;0.71;100.00
47761;BME280;33524;55.434;38.520;2023-10-09T01:53:09;97744.75;;;0.72;100.00
47761;BME280;33524;55.434;38.520;2023-10-09T01:55:38;97743.13;;;0.82;100.00
47761;BME280;33524;55.434;38.520;2023-10-09T01:58:13;97751.59;;;0.84;100.00
47761;BME280;33524;55.434;38.520;2023-10-09T02:00:51;97755.47;;;0.78;100.00
47761;BME280;33524;55.434;38.520;2023-10-09T02:03:25;97757.59;;;0.85;100.00
47761;BME280;33524;55.434;38.520;2023-10-09T02:05:55;97758.91;;;0.79;100.00
47761;BME280;33524;55.434;38.520;2023-10-09T02:08:44;97776.34;;;0.99;100.00
47761;BME280;33524;55.434;38.520;2023-10-09T02:11:17;97774.06;;;0.95;100.00
47761;BME280;33524;55.434;38.520;2023-10-09T02:14:04;97767.84;;;0.86;100.00
47761;BME280;33524;55.434;38.520;2023-10-09T02:16:48;97790.91;;;1.00;100.00
47761;BME280;33524;55.434;38.520;2023-10-09T02:19:46;97796.19;;;0.99;100.00
47761;BME280;33524;55.434;38.520;2023-10-09T02:22:17;97804.59;;;1.14;100.00
47761;BME280;33524;55.434;38.520;2023-10-09T02:24:45;97817.75;;;1.11;100.00
47761;BME280;33524;55.434;38.520;2023-10-09T02:27:19;97812.22;;;1.04;100.00
47761;BME280;33524;55.434;38.520;2023-10-09T02:30:16;97824.47;;;1.13;100.00
47761;BME280;33524;55.434;38.520;2023-10-09T02:32:47;97829.41;;;1.05;100.00
47761;BME280;33524;55.434;38.520;2023-10-09T02:35:20;97835.78;;;1.12;100.00
47761;BME280;33524;55.434;38.520;2023-10-09T02:38:07;97838.00;;;1.06;100.00
47761;BME280;33524;55.434;38.520;2023-10-09T02:40:35;97833.91;;;1.14;100.00
47761;BME280;33524;55.434;38.520;2023-10-09T02:43:25;97838.59;;;1.09;100.00
47761;BME280;33524;55.434;38.520;2023-10-09T02:45:54;97848.12;;;1.09;100.00
47761;BME280;33524;55.434;38.520;2023-10-09T02:48:22;97858.00;;;1.15;100.00
47761;BME280;33524;55.434;38.520;2023-10-09T02:50:54;97858.25;;;1.12;100.00
47761;BME280;33524;55.434;38.520;2023-10-09T02:53:22;97868.47;;;1.13;100.00
47761;BME280;33524;55.434;38.520;2023-10-09T02:55:58;97876.25;;;1.13;100.00
47761;BME280;33524;55.434;38.520;2023-10-09T02:58:42;97886.03;;;1.10;100.00
47761;BME280;33524;55.434;38.520;2023-10-09T03:01:12;97880.84;;;1.10;100.00
47761;BME280;33524;55.434;38.520;2023-10-09T03:03:41;97889.09;;;1.15;100.00
47761;BME280;33524;55.434;38.520;2023-10-09T03:06:17;97887.66;;;1.11;100.00
47761;BME280;33524;55.434;38.520;2023-10-09T03:08:52;97894.75;;;1.20;100.00
47761;BME280;33524;55.434;38.520;2023-10-09T03:11:23;97896.03;;;1.14;100.00
47761;BME280;33524;55.434;38.520;2023-10-09T03:13:53;97906.66;;;1.23;100.00
47761;BME280;33524;55.434;38.520;2023-10-09T03:16:22;97905.69;;;1.24;100.00
47761;BME280;33524;55.434;38.520;2023-10-09T03:18:52;97914.75;;;1.18;100.00
47761;BME280;33524;55.434;38.520;2023-10-09T03:21:20;97921.38;;;1.22;100.00
47761;BME280;33524;55.434;38.520;2023-10-09T03:23:49;97928.34;;;1.33;100.00
47761;BME280;33524;55.434;38.520;2023-10-09T03:26:18;97932.28;;;1.26;100.00
47761;BME280;33524;55.434;38.520;2023-10-09T03:28:49;97936.91;;;1.22;100.00
47761;BME280;33524;55.434;38.520;2023-10-09T03:31:17;97942.78;;;1.24;100.00
47761;BME280;33524;55.434;38.520;2023-10-09T03:33:45;97939.03;;;1.28;100.00
47761;BME280;33524;55.434;38.520;2023-10-09T03:36:15;97944.31;;;1.27;100.00
47761;BME280;33524;55.434;38.520;2023-10-09T03:38:44;97953.38;;;1.32;100.00
47761;BME280;33524;55.434;38.520;2023-10-09T03:41:12;97942.44;;;1.29;100.00
47761;BME280;33524;55.434;38.520;2023-10-09T03:43:44;97945.84;;;1.29;100.00
47761;BME280;33524;55.434;38.520;2023-10-09T03:46:14;97956.31;;;1.28;100.00
47761;BME280;33524;55.434;38.520;2023-10-09T03:48:49;97964.50;;;1.46;100.00
47761;BME280;33524;55.434;38.520;2023-10-09T03:51:17;97963.44;;;1.37;100.00
47761;BME280;33524;55.434;38.520;2023-10-09T03:53:51;97968.72;;;1.35;100.00
47761;BME280;33524;55.434;38.520;2023-10-09T03:56:20;97969.31;;;1.39;100.00
47761;BME280;33524;55.434;38.520;2023-10-09T03:58:52;97966.22;;;1.34;100.00
47761;BME280;33524;55.434;38.520;2023-10-09T04:01:21;97970.12;;;1.39;100.00
47761;BME280;33524;55.434;38.520;2023-10-09T04:04:19;97976.38;;;1.37;100.00
47761;BME280;33524;55.434;38.520;2023-10-09T04:06:51;97980.94;;;1.33;100.00
47761;BME280;33524;55.434;38.520;2023-10-09T04:09:20;97980.25;;;1.42;100.00
47761;BME280;33524;55.434;38.520;2023-10-09T04:11:50;97975.31;;;1.39;100.00
47761;BME280;33524;55.434;38.520;2023-10-09T04:14:38;97970.59;;;1.33;100.00
47761;BME280;33524;55.434;38.520;2023-10-09T04:17:23;97986.03;;;1.46;100.00
47761;BME280;33524;55.434;38.520;2023-10-09T04:20:03;97997.56;;;1.42;100.00
47761;BME280;33524;55.434;38.520;2023-10-09T04:22:46;98002.53;;;1.45;100.00
47761;BME280;33524;55.434;38.520;2023-10-09T04:25:34;98007.38;;;1.50;100.00
47761;BME280;33524;55.434;38.520;2023-10-09T04:28:13;97992.00;;;1.35;100.00
47761;BME280;33524;55.434;38.520;2023-10-09T04:30:46;98008.44;;;1.47;100.00
47761;BME280;33524;55.434;38.520;2023-10-09T04:33:15;98024.25;;;1.55;100.00
47761;BME280;33524;55.434;38.520;2023-10-09T04:36:07;98020.69;;;1.56;100.00
47761;BME280;33524;55.434;38.520;2023-10-09T04:38:53;98029.28;;;1.57;100.00
47761;BME280;33524;55.434;38.520;2023-10-09T04:41:31;98033.66;;;1.56;100.00
47761;BME280;33524;55.434;38.520;2023-10-09T04:44:22;98045.53;;;1.59;100.00
47761;BME280;33524;55.434;38.520;2023-10-09T04:47:04;98051.38;;;1.74;100.00
47761;BME280;33524;55.434;38.520;2023-10-09T04:49:42;98055.34;;;1.67;99.55
47761;BME280;33524;55.434;38.520;2023-10-09T04:52:18;98066.94;;;1.74;99.53
47761;BME280;33524;55.434;38.520;2023-10-09T04:54:59;98065.87;;;1.76;99.37
47761;BME280;33524;55.434;38.520;2023-10-09T04:57:42;98066.69;;;1.77;99.64
47761;BME280;33524;55.434;38.520;2023-10-09T05:00:16;98054.09;;;1.84;99.87
47761;BME280;33524;55.434;38.520;2023-10-09T05:02:59;98075.34;;;1.89;98.99
47761;BME280;33524;55.434;38.520;2023-10-09T05:05:53;98086.59;;;1.76;98.52
47761;BME280;33524;55.434;38.520;2023-10-09T05:08:28;98083.31;;;1.74;98.37
47761;BME280;33524;55.434;38.520;2023-10-09T05:10:58;98082.41;;;1.87;98.68
47761;BME280;33524;55.434;38.520;2023-10-09T05:13:34;98077.31;;;1.85;98.11
47761;BME280;33524;55.434;38.520;2023-10-09T05:16:16;98097.13;;;1.86;98.09
47761;BME280;33524;55.434;38.520;2023-10-09T05:18:56;98113.97;;;1.92;97.93
47761;BME280;33524;55.434;38.520;2023-10-09T05:21:30;98109.16;;;1.87;97.40
47761;BME280;33524;55.434;38.520;2023-10-09T05:24:01;98109.66;;;2.04;97.83
47761;BME280;33524;55.434;38.520;2023-10-09T05:26:46;98108.59;;;1.95;96.95
47761;BME280;33524;55.434;38.520;2023-10-09T05:29:20;98104.59;;;2.02;97.10
47761;BME280;33524;55.434;38.520;2023-10-09T05:31:49;98120.25;;;2.00;96.22
47761;BME280;33524;55.434;38.520;2023-10-09T05:34:36;98122.47;;;1.94;95.74
47761;BME280;33524;55.434;38.520;2023-10-09T05:37:25;98137.91;;;1.95;94.71
47761;BME280;33524;55.434;38.520;2023-10-09T05:39:55;98154.09;;;1.99;95.15
47761;BME280;33524;55.434;38.520;2023-10-09T05:42:34;98151.50;;;1.99;95.35
47761;BME280;33524;55.434;38.520;2023-10-09T05:45:07;98153.91;;;2.13;95.83
47761;BME280;33524;55.434;38.520;2023-10-09T05:47:53;98159.34;;;2.21;95.56
47761;BME280;33524;55.434;38.520;2023-10-09T05:50:25;98159.09;;;2.25;95.35
47761;BME280;33524;55.434;38.520;2023-10-09T05:52:56;98151.59;;;2.33;95.62
47761;BME280;33524;55.434;38.520;2023-10-09T05:55:25;98161.97;;;2.33;95.03
47761;BME280;33524;55.434;38.520;2023-10-09T05:57:55;98171.81;;;2.16;95.09
47761;BME280;33524;55.434;38.520;2023-10-09T06:00:42;98154.66;;;2.02;94.85
47761;BME280;33524;55.434;38.520;2023-10-09T06:03:29;98163.50;;;2.35;95.21
47761;BME280;33524;55.434;38.520;2023-10-09T06:06:16;98184.44;;;2.21;94.80
47761;BME280;33524;55.434;38.520;2023-10-09T06:09:05;98183.16;;;2.27;95.18
47761;BME280;33524;55.434;38.520;2023-10-09T06:11:45;98189.97;;;2.16;95.05
47761;BME280;33524;55.434;38.520;2023-10-09T06:14:24;98198.12;;;2.23;95.38
47761;BME280;33524;55.434;38.520;2023-10-09T06:16:53;98200.16;;;2.31;95.77
47761;BME280;33524;55.434;38.520;2023-10-09T06:19:39;98206.03;;;2.21;95.70
47761;BME280;33524;55.434;38.520;2023-10-09T06:22:16;98212.16;;;2.20;95.73
47761;BME280;33524;55.434;38.520;2023-10-09T06:25:07;98215.41;;;2.11;95.74
47761;BME280;33524;55.434;38.520;2023-10-09T06:27:40;98228.03;;;2.16;95.57
47761;BME280;33524;55.434;38.520;2023-10-09T06:30:11;98228.03;;;2.16;95.44
47761;BME280;33524;55.434;38.520;2023-10-09T06:32:46;98240.47;;;2.24;95.27
47761;BME280;33524;55.434;38.520;2023-10-09T06:35:19;98247.09;;;2.28;95.45
47761;BME280;33524;55.434;38.520;2023-10-09T06:37:50;98252.03;;;2.31;95.52
47761;BME280;33524;55.434;38.520;2023-10-09T06:40:39;98256.31;;;2.43;96.09
47761;BME280;33524;55.434;38.520;2023-10-09T06:43:20;98258.72;;;2.46;95.61
47761;BME280;33524;55.434;38.520;2023-10-09T06:45:53;98258.47;;;2.25;95.61
47761;BME280;33524;55.434;38.520;2023-10-09T06:48:40;98283.00;;;2.21;96.18
47761;BME280;33524;55.434;38.520;2023-10-09T06:51:10;98287.78;;;2.14;96.73
47761;BME280;33524;55.434;38.520;2023-10-09T06:53:55;98290.50;;;2.13;96.68
47761;BME280;33524;55.434;38.520;2023-10-09T06:56:26;98292.06;;;2.15;96.93
47761;BME280;33524;55.434;38.520;2023-10-09T06:59:02;98297.12;;;2.17;97.20
47761;BME280;33524;55.434;38.520;2023-10-09T07:01:45;98293.78;;;2.28;97.30
47761;BME280;33524;55.434;38.520;2023-10-09T07:04:18;98294.91;;;2.48;96.70
47761;BME280;33524;55.434;38.520;2023-10-09T07:06:48;98304.72;;;2.31;95.71
47761;BME280;33524;55.434;38.520;2023-10-09T07:09:19;98313.41;;;2.43;95.28
47761;BME280;33524;55.434;38.520;2023-10-09T07:11:52;98308.50;;;2.51;94.99
47761;BME280;33524;55.434;38.520;2023-10-09T07:14:22;98300.69;;;2.51;94.09
47761;BME280;33524;55.434;38.520;2023-10-09T07:17:06;98317.19;;;2.74;93.90
47761;BME280;33524;55.434;38.520;2023-10-09T07:19:51;98320.12;;;2.70;93.70
47761;BME280;33524;55.434;38.520;2023-10-09T07:22:21;98306.12;;;2.83;93.72
47761;BME280;33524;55.434;38.520;2023-10-09T07:24:52;98320.34;;;3.02;93.75
47761;BME280;33524;55.434;38.520;2023-10-09T07:27:34;98322.44;;;2.97;93.68
47761;BME280;33524;55.434;38.520;2023-10-09T07:30:15;98315.53;;;3.09;92.96
47761;BME280;33524;55.434;38.520;2023-10-09T07:33:03;98330.94;;;2.99;92.57
47761;BME280;33524;55.434;38.520;2023-10-09T07:35:47;98337.72;;;3.13;93.18
47761;BME280;33524;55.434;38.520;2023-10-09T07:38:18;98332.56;;;2.89;93.18
47761;BME280;33524;55.434;38.520;2023-10-09T07:41:33;98340.88;;;3.05;93.41
47761;BME280;33524;55.434;38.520;2023-10-09T07:44:02;98349.50;;;3.06;93.83
47761;BME280;33524;55.434;38.520;2023-10-09T07:46:47;98352.41;;;3.25;94.11
47761;BME280;33524;55.434;38.520;2023-10-09T07:49:41;98363.81;;;3.11;94.01
47761;BME280;33524;55.434;38.520;2023-10-09T07:52:16;98360.28;;;3.23;93.53
47761;BME280;33524;55.434;38.520;2023-10-09T07:54:45;98367.63;;;3.18;93.03
47761;BME280;33524;55.434;38.520;2023-10-09T07:57:30;98375.44;;;3.30;92.71
47761;BME280;33524;55.434;38.520;2023-10-09T08:00:08;98380.88;;;3.38;92.67
47761;BME280;33524;55.434;38.520;2023-10-09T08:02:46;98381.53;;;3.17;91.22
47761;BME280;33524;55.434;38.520;2023-10-09T08:05:28;98376.69;;;3.13;92.49
47761;BME280;33524;55.434;38.520;2023-10-09T08:08:04;98392.66;;;3.31;92.45
47761;BME280;33524;55.434;38.520;2023-10-09T08:11:09;98390.50;;;3.13;90.32
47761;BME280;33524;55.434;38.520;2023-10-09T08:13:56;98383.47;;;3.38;92.30
47761;BME280;33524;55.434;38.520;2023-10-09T08:16:25;98394.63;;;3.16;90.15
47761;BME280;33524;55.434;38.520;2023-10-09T08:19:06;98401.16;;;3.21;90.43
47761;BME280;33524;55.434;38.520;2023-10-09T08:22:01;98395.31;;;3.07;89.85
47761;BME280;33524;55.434;38.520;2023-10-09T08:25:06;98410.72;;;3.21;89.66
47761;BME280;33524;55.434;38.520;2023-10-09T08:27:44;98410.28;;;3.38;88.25
47761;BME280;33524;55.434;38.520;2023-10-09T08:30:25;98417.34;;;3.36;88.32
47761;BME280;33524;55.434;38.520;2023-10-09T08:32:55;98419.84;;;3.38;86.20
47761;BME280;33524;55.434;38.520;2023-10-09T08:36:07;98413.84;;;3.49;87.20
47761;BME280;33524;55.434;38.520;2023-10-09T08:38:37;98419.53;;;3.54;86.35
47761;BME280;33524;55.434;38.520;2023-10-09T08:41:16;98425.56;;;3.54;85.87
47761;BME280;33524;55.434;38.520;2023-10-09T08:43:50;98430.66;;;3.56;85.40
47761;BME280;33524;55.434;38.520;2023-10-09T08:46:25;98436.56;;;3.58;85.77
47761;BME280;33524;55.434;38.520;2023-10-09T08:49:00;98443.41;;;3.48;85.21
47761;BME280;33524;55.434;38.520;2023-10-09T08:51:34;98445.75;;;3.51;85.07
47761;BME280;33524;55.434;38.520;2023-10-09T08:54:07;98466.69;;;3.25;86.20
47761;BME280;33524;55.434;38.520;2023-10-09T08:56:42;98453.91;;;3.11;86.75
47761;BME280;33524;55.434;38.520;2023-10-09T08:59:39;98468.59;;;3.23;88.18
47761;BME280;33524;55.434;38.520;2023-10-09T09:02:15;98462.16;;;3.16;88.76
47761;BME280;33524;55.434;38.520;2023-10-09T09:04:51;98479.69;;;3.01;88.43
47761;BME280;33524;55.434;38.520;2023-10-09T09:07:28;98465.47;;;3.18;88.74
47761;BME280;33524;55.434;38.520;2023-10-09T09:10:06;98475.75;;;3.43;89.69
47761;BME280;33524;55.434;38.520;2023-10-09T09:13:14;98459.91;;;3.47;87.90
47761;BME280;33524;55.434;38.520;2023-10-09T09:15:49;98476.41;;;3.34;86.22
47761;BME280;33524;55.434;38.520;2023-10-09T09:18:23;98490.75;;;3.51;85.40
47761;BME280;33524;55.434;38.520;2023-10-09T09:21:01;98489.66;;;3.42;84.94
47761;BME280;33524;55.434;38.520;2023-10-09T09:23:34;98502.66;;;3.42;85.45
47761;BME280;33524;55.434;38.520;2023-10-09T09:26:04;98499.44;;;3.39;84.63
47761;BME280;33524;55.434;38.520;2023-10-09T09:29:00;98499.00;;;3.45;84.53
47761;BME280;33524;55.434;38.520;2023-10-09T09:31:36;98504.09;;;3.47;84.23
47761;BME280;33524;55.434;38.520;2023-10-09T09:34:11;98498.34;;;3.66;83.88
47761;BME280;33524;55.434;38.520;2023-10-09T09:36:56;98504.66;;;3.74;83.12
47761;BME280;33524;55.434;38.520;2023-10-09T09:39:27;98516.28;;;3.93;84.00
47761;BME280;33524;55.434;38.520;2023-10-09T09:42:15;98506.38;;;4.09;83.77
47761;BME280;33524;55.434;38.520;2023-10-09T09:44:55;98519.47;;;3.85;82.79
47761;BME280;33524;55.434;38.520;2023-10-09T09:47:32;98516.25;;;3.81;82.91
47761;BME280;33524;55.434;38.520;2023-10-09T09:50:07;98519.81;;;3.80;83.31
47761;BME280;33524;55.434;38.520;2023-10-09T09:52:54;98534.19;;;3.73;83.88
47761;BME280;33524;55.434;38.520;2023-10-09T09:55:38;98525.94;;;3.68;84.81
47761;BME280;33524;55.434;38.520;2023-10-09T09:58:20;98522.16;;;3.72;84.42
47761;BME280;33524;55.434;38.520;2023-10-09T10:01:08;98532.84;;;3.92;84.16
47761;BME280;33524;55.434;38.520;2023-10-09T10:04:17;98529.81;;;4.32;84.57
47761;BME280;33524;55.434;38.520;2023-10-09T10:07:06;98538.19;;;4.13;83.29
47761;BME280;33524;55.434;38.520;2023-10-09T10:09:42;98534.06;;;4.21;83.99
47761;BME280;33524;55.434;38.520;2023-10-09T10:12:14;98531.19;;;4.13;84.30
47761;BME280;33524;55.434;38.520;2023-10-09T10:15:10;98532.59;;;3.95;84.73
47761;BME280;33524;55.434;38.520;2023-10-09T10:23:48;98550.31;;;3.90;87.23
47761;BME280;33524;55.434;38.520;2023-10-09T10:26:28;98546.66;;;3.92;87.86
47761;BME280;33524;55.434;38.520;2023-10-09T10:29:21;98554.53;;;3.79;89.42
47761;BME280;33524;55.434;38.520;2023-10-09T10:32:08;98560.44;;;3.70;88.77
47761;BME280;33524;55.434;38.520;2023-10-09T10:37:38;98573.63;;;3.56;87.35
47761;BME280;33524;55.434;38.520;2023-10-09T10:40:39;98565.41;;;3.49;88.24
47761;BME280;33524;55.434;38.520;2023-10-09T10:43:34;98577.94;;;3.79;88.31
47761;BME280;33524;55.434;38.520;2023-10-09T10:46:21;98571.03;;;3.67;86.33
47761;BME280;33524;55.434;38.520;2023-10-09T10:48:54;98581.97;;;3.72;86.03
47761;BME280;33524;55.434;38.520;2023-10-09T10:51:43;98579.12;;;3.75;85.88
47761;BME280;33524;55.434;38.520;2023-10-09T10:54:22;98584.88;;;4.03;84.94
47761;BME280;33524;55.434;38.520;2023-10-09T10:57:22;98602.12;;;3.93;83.00
47761;BME280;33524;55.434;38.520;2023-10-09T11:00:30;98595.66;;;3.74;83.30
47761;BME280;33524;55.434;38.520;2023-10-09T11:03:19;98596.50;;;3.51;85.22
47761;BME280;33524;55.434;38.520;2023-10-09T11:06:04;98603.91;;;3.44;87.36
47761;BME280;33524;55.434;38.520;2023-10-09T11:08:48;98606.44;;;3.57;88.65
47761;BME280;33524;55.434;38.520;2023-10-09T11:11:26;98605.06;;;3.40;88.65
47761;BME280;33524;55.434;38.520;2023-10-09T11:14:10;98612.16;;;3.38;87.77
47761;BME280;33524;55.434;38.520;2023-10-09T11:16:59;98619.53;;;3.55;89.85
47761;BME280;33524;55.434;38.520;2023-10-09T11:19:31;98608.69;;;3.86;89.03
47761;BME280;33524;55.434;38.520;2023-10-09T11:22:13;98614.25;;;3.57;86.55
47761;BME280;33524;55.434;38.520;2023-10-09T11:24:55;98616.94;;;3.55;86.45
47761;BME280;33524;55.434;38.520;2023-10-09T11:27:49;98626.81;;;3.63;85.70
47761;BME280;33524;55.434;38.520;2023-10-09T11:30:38;98632.00;;;3.63;84.85
47761;BME280;33524;55.434;38.520;2023-10-09T11:33:41;98633.69;;;3.64;85.35
47761;BME280;33524;55.434;38.520;2023-10-09T11:36:15;98634.72;;;3.86;86.49
47761;BME280;33524;55.434;38.520;2023-10-09T11:39:27;98644.94;;;4.00;84.64
47761;BME280;33524;55.434;38.520;2023-10-09T11:42:14;98639.94;;;3.97;83.84
47761;BME280;33524;55.434;38.520;2023-10-09T11:45:19;98646.56;;;4.01;82.86
47761;BME280;33524;55.434;38.520;2023-10-09T11:47:58;98648.09;;;3.92;82.22
47761;BME280;33524;55.434;38.520;2023-10-09T11:50:54;98661.81;;;3.94;81.69
47761;BME280;33524;55.434;38.520;2023-10-09T11:53:24;98649.97;;;3.90;82.75
47761;BME280;33524;55.434;38.520;2023-10-09T11:56:04;98656.22;;;3.88;83.02
47761;BME280;33524;55.434;38.520;2023-10-09T11:58:47;98655.47;;;3.74;84.44
47761;BME280;33524;55.434;38.520;2023-10-09T12:01:37;98663.59;;;3.70;85.52
47761;BME280;33524;55.434;38.520;2023-10-09T12:04:20;98666.97;;;3.59;86.05
47761;BME280;33524;55.434;38.520;2023-10-09T12:07:18;98662.47;;;3.61;87.82
47761;BME280;33524;55.434;38.520;2023-10-09T12:10:00;98673.31;;;3.55;88.99
47761;BME280;33524;55.434;38.520;2023-10-09T12:12:48;98680.69;;;3.61;89.67
47761;BME280;33524;55.434;38.520;2023-10-09T12:15:42;98680.38;;;3.53;91.00
47761;BME280;33524;55.434;38.520;2023-10-09T12:18:20;98688.25;;;3.27;92.13
47761;BME280;33524;55.434;38.520;2023-10-09T12:21:04;98686.59;;;3.26;92.99
47761;BME280;33524;55.434;38.520;2023-10-09T12:23:36;98687.19;;;3.42;93.78
47761;BME280;33524;55.434;38.520;2023-10-09T12:26:19;98691.44;;;3.43;93.69
47761;BME280;33524;55.434;38.520;2023-10-09T12:28:55;98704.66;;;3.28;94.50
47761;BME280;33524;55.434;38.520;2023-10-09T12:31:32;98698.03;;;3.23;95.34
47761;BME280;33524;55.434;38.520;2023-10-09T12:34:14;98702.50;;;3.21;94.80
47761;BME280;33524;55.434;38.520;2023-10-09T12:36:59;98708.09;;;3.28;94.68
47761;BME280;33524;55.434;38.520;2023-10-09T12:39:50;98710.69;;;3.28;95.16
47761;BME280;33524;55.434;38.520;2023-10-09T12:42:31;98727.53;;;3.35;94.51
47761;BME280;33524;55.434;38.520;2023-10-09T12:45:03;98728.81;;;3.17;95.33
47761;BME280;33524;55.434;38.520;2023-10-09T12:47:51;98733.47;;;3.12;94.84
47761;BME280;33524;55.434;38.520;2023-10-09T12:50:21;98742.72;;;2.90;95.66
47761;BME280;33524;55.434;38.520;2023-10-09T12:52:57;98750.78;;;2.73;97.33
47761;BME280;33524;55.434;38.520;2023-10-09T12:55:36;98753.91;;;2.65;98.62
47761;BME280;33524;55.434;38.520;2023-10-09T12:58:12;98747.69;;;2.68;99.31
47761;BME280;33524;55.434;38.520;2023-10-09T13:00:44;98747.47;;;2.71;99.13
47761;BME280;33524;55.434;38.520;2023-10-09T13:03:17;98757.13;;;2.69;99.69
47761;BME280;33524;55.434;38.520;2023-10-09T13:05:48;98751.72;;;2.59;99.32
47761;BME280;33524;55.434;38.520;2023-10-09T13:08:27;98758.87;;;2.55;98.09
47761;BME280;33524;55.434;38.520;2023-10-09T13:11:11;98773.03;;;2.77;98.85
47761;BME280;33524;55.434;38.520;2023-10-09T13:13:41;98777.78;;;2.57;97.81
47761;BME280;33524;55.434;38.520;2023-10-09T13:16:17;98782.31;;;2.54;98.16
47761;BME280;33524;55.434;38.520;2023-10-09T13:18:54;98782.31;;;2.54;98.43
47761;BME280;33524;55.434;38.520;2023-10-09T13:21:24;98778.72;;;2.56;98.68
47761;BME280;33524;55.434;38.520;2023-10-09T13:23:54;98783.06;;;2.56;98.53
47761;BME280;33524;55.434;38.520;2023-10-09T13:26:24;98778.00;;;2.54;98.14
47761;BME280;33524;55.434;38.520;2023-10-09T13:29:04;98791.69;;;2.56;98.59
47761;BME280;33524;55.434;38.520;2023-10-09T13:31:39;98788.38;;;2.54;98.70
47761;BME280;33524;55.434;38.520;2023-10-09T13:34:16;98790.41;;;2.49;98.59
47761;BME280;33524;55.434;38.520;2023-10-09T13:36:46;98799.97;;;2.49;98.43
47761;BME280;33524;55.434;38.520;2023-10-09T13:39:22;98812.94;;;2.49;98.99
47761;BME280;33524;55.434;38.520;2023-10-09T13:41:55;98822.78;;;2.43;99.34
47761;BME280;33524;55.434;38.520;2023-10-09T13:44:32;98828.19;;;2.40;99.42
47761;BME280;33524;55.434;38.520;2023-10-09T13:47:04;98826.28;;;2.30;99.90
47761;BME280;33524;55.434;38.520;2023-10-09T13:49:57;98833.53;;;2.37;100.00
47761;BME280;33524;55.434;38.520;2023-10-09T13:52:35;98836.88;;;2.39;100.00
47761;BME280;33524;55.434;38.520;2023-10-09T13:55:15;98840.38;;;2.26;100.00
47761;BME280;33524;55.434;38.520;2023-10-09T13:57:50;98836.91;;;2.25;100.00
47761;BME280;33524;55.434;38.520;2023-10-09T14:00:23;98843.44;;;2.45;100.00
47761;BME280;33524;55.434;38.520;2023-10-09T14:03:03;98842.00;;;2.27;100.00
47761;BME280;33524;55.434;38.520;2023-10-09T14:05:54;98855.81;;;2.27;100.00